Celebrity Galaxy — 9HJH9 — position and weather

sailwx.info

Track history (hours):
 
Tides and Currents Weather Stations Pressure Air Temp Water Temp Dewpoint Dewpoint Depression Visibility Wind Speed Wind Dir Waves Ship Positions

Celebrity Galaxy

Last reported at 2020-Jan-18 13:21 UTC. Time now 2020-Jan-18 13:59 UTC.
Position N 28°08' W 015°25'.

Length 262 m; draft 8.5 m.

Type: Passenger vessel. MMSI: 249051000.

Date/timePositionNaut miles runAvg speedWind from/ knotsBaromVisibWave heightAir tempDewpointWater temp
2020-Jan-18 13:21N 28°08' W 015°25'0 0.0
2020-Jan-18 10:20N 28°08' W 015°25'0 0.0
2020-Jan-18 09:55N 28°08' W 015°25'8 2.3
2020-Jan-18 06:31N 28°09' W 015°17'4 8.5
2020-Jan-18 06:01N 28°14' W 015°16'15 7.6
2020-Jan-18 04:00N 28°27' W 015°24'17 8.3
2020-Jan-18 02:00N 28°33' W 015°42'9 8.8
2020-Jan-18 01:00N 28°27' W 015°48'8 7.8
2020-Jan-18 00:00N 28°24' W 015°56'16 4.1
2020-Jan-17 19:59N 28°28' W 016°14'0 0.0
2020-Jan-17 18:28N 28°28' W 016°14'0 0.0
2020-Jan-17 17:30N 28°28' W 016°14'0 0.0
2020-Jan-17 16:29N 28°28' W 016°14'0 0.0
2020-Jan-17 14:59N 28°28' W 016°14'0 0.0
2020-Jan-17 11:29N 28°28' W 016°14'0 0.0
2020-Jan-17 08:28N 28°28' W 016°14'1 0.4
2020-Jan-17 07:00N 28°29' W 016°14'2010.1
2020-Jan-17 05:00N 28°31' W 015°51'611.9
2020-Jan-17 04:30N 28°35' W 015°47'611.4
2020-Jan-17 04:00N 28°38' W 015°41'1711.5
2020-Jan-17 02:30N 28°40' W 015°22'2311.5
2020-Jan-17 00:30N 28°42' W 014°56'7510.0
2020-Jan-16 16:59N 28°58' W 013°32'0 0.0
2020-Jan-16 13:38N 28°58' W 013°32'0 0.0
2020-Jan-16 12:56N 28°58' W 013°32'0 0.0
2020-Jan-16 12:17N 28°58' W 013°32'0 0.0
2020-Jan-16 11:32N 28°58' W 013°32'0 0.0
2020-Jan-16 10:35N 28°58' W 013°32'1 0.3
2020-Jan-16 08:30N 28°57' W 013°32'  
2020-Jan-12 02:57N 28°47' W 016°02'3015.2
2020-Jan-12 01:01N 28°31' W 015°34'1414.1
2020-Jan-12 00:01N 28°21' W 015°22'1313.1
2020-Jan-11 23:01N 28°08' W 015°22'3 5.7
2020-Jan-11 22:31N 28°08' W 015°25'0 0.1
2020-Jan-11 21:29N 28°08' W 015°25'0 0.0
2020-Jan-11 20:55N 28°08' W 015°25'0 0.0
2020-Jan-11 16:55N 28°08' W 015°25'0 0.0
2020-Jan-11 15:59N 28°08' W 015°25'0 0.0
2020-Jan-11 11:00N 28°08' W 015°25'8 1.7
2020-Jan-11 06:30N 28°10' W 015°17'22 7.4
2020-Jan-11 03:30N 28°29' W 015°29'4 8.5
2020-Jan-11 03:00N 28°31' W 015°33'4 8.5
2020-Jan-11 02:30N 28°33' W 015°37'8 7.5
2020-Jan-11 01:30N 28°30' W 015°45'12 8.2
2020-Jan-11 00:00N 28°22' W 015°55'4 8.7
2020-Jan-10 23:30N 28°23' W 016°00'14 2.3
2020-Jan-10 17:30N 28°28' W 016°14'0 0.0
2020-Jan-10 17:00N 28°28' W 016°14'0 0.0
2020-Jan-10 15:30N 28°28' W 016°14'0 0.0
2020-Jan-10 12:29N 28°28' W 016°14'0 0.0
2020-Jan-10 10:29N 28°28' W 016°14'0 0.0
2020-Jan-10 08:29N 28°28' W 016°14'0 0.0
2020-Jan-10 07:59N 28°28' W 016°14'0 0.0
2020-Jan-10 07:27N 28°28' W 016°14'0 1.0
2020-Jan-10 07:00N 28°29' W 016°14'3 5.8
2020-Jan-10 06:30N 28°28' W 016°11'5410.8
2020-Jan-10 01:30N 28°41' W 015°11'510.4
2020-Jan-10 01:00N 28°42' W 015°05'2811.2
2020-Jan-09 22:30N 28°45' W 014°34'3811.0
2020-Jan-09 19:00N 28°48' W 013°50'30 1.9
2020-Jan-09 03:30N 28°28' W 013°25'7 6.1
2020-Jan-09 02:26N 28°29' W 013°18'24 4.4
2020-Jan-08 21:00N 28°52' W 013°17'3 6.0
2020-Jan-08 20:30N 28°53' W 013°20'6 6.2
2020-Jan-08 19:30N 28°55' W 013°27'3 6.2
2020-Jan-08 18:58N 28°56' W 013°30'2 1.2
2020-Jan-08 17:06N 28°58' W 013°32'0 0.0
2020-Jan-08 15:29N 28°58' W 013°32'0 0.0
2020-Jan-08 14:53N 28°58' W 013°32'0 0.0
2020-Jan-08 13:51N 28°58' W 013°32'  
Track history (hours):
 
Tides and Currents Weather Stations Pressure Air Temp Water Temp Dewpoint Dewpoint Depression Visibility Wind Speed Wind Dir Waves Ship Positions

Celebrity Galaxy

Last reported at 2020-Jan-18 13:21 UTC. Time now 2020-Jan-18 13:59 UTC.
Position N 28°08' W 015°25'.

Length 262 m; draft 8.5 m.

Type: Passenger vessel. MMSI: 249051000.

Date/timePositionNaut miles runAvg speedWind from/ knotsBaromVisibWave heightAir tempDewpointWater temp
2020-Jan-18 13:21N 28°08' W 015°25'0 0.0
2020-Jan-18 10:20N 28°08' W 015°25'0 0.0
2020-Jan-18 09:55N 28°08' W 015°25'8 2.3
2020-Jan-18 06:31N 28°09' W 015°17'4 8.5
2020-Jan-18 06:01N 28°14' W 015°16'15 7.6
2020-Jan-18 04:00N 28°27' W 015°24'17 8.3
2020-Jan-18 02:00N 28°33' W 015°42'9 8.8
2020-Jan-18 01:00N 28°27' W 015°48'8 7.8
2020-Jan-18 00:00N 28°24' W 015°56'16 4.1
2020-Jan-17 19:59N 28°28' W 016°14'0 0.0
2020-Jan-17 18:28N 28°28' W 016°14'0 0.0
2020-Jan-17 17:30N 28°28' W 016°14'0 0.0
2020-Jan-17 16:29N 28°28' W 016°14'0 0.0
2020-Jan-17 14:59N 28°28' W 016°14'0 0.0
2020-Jan-17 11:29N 28°28' W 016°14'0 0.0
2020-Jan-17 08:28N 28°28' W 016°14'1 0.4
2020-Jan-17 07:00N 28°29' W 016°14'2010.1
2020-Jan-17 05:00N 28°31' W 015°51'611.9
2020-Jan-17 04:30N 28°35' W 015°47'611.4
2020-Jan-17 04:00N 28°38' W 015°41'1711.5
2020-Jan-17 02:30N 28°40' W 015°22'2311.5
2020-Jan-17 00:30N 28°42' W 014°56'7510.0
2020-Jan-16 16:59N 28°58' W 013°32'0 0.0
2020-Jan-16 13:38N 28°58' W 013°32'0 0.0
2020-Jan-16 12:56N 28°58' W 013°32'0 0.0
2020-Jan-16 12:17N 28°58' W 013°32'0 0.0
2020-Jan-16 11:32N 28°58' W 013°32'0 0.0
2020-Jan-16 10:35N 28°58' W 013°32'1 0.3
2020-Jan-16 08:30N 28°57' W 013°32'  
2020-Jan-12 02:57N 28°47' W 016°02'3015.2
2020-Jan-12 01:01N 28°31' W 015°34'1414.1
2020-Jan-12 00:01N 28°21' W 015°22'1313.1
2020-Jan-11 23:01N 28°08' W 015°22'3 5.7
2020-Jan-11 22:31N 28°08' W 015°25'0 0.1
2020-Jan-11 21:29N 28°08' W 015°25'0 0.0
2020-Jan-11 20:55N 28°08' W 015°25'0 0.0
2020-Jan-11 16:55N 28°08' W 015°25'0 0.0
2020-Jan-11 15:59N 28°08' W 015°25'0 0.0
2020-Jan-11 11:00N 28°08' W 015°25'8 1.7
2020-Jan-11 06:30N 28°10' W 015°17'22 7.4
2020-Jan-11 03:30N 28°29' W 015°29'4 8.5
2020-Jan-11 03:00N 28°31' W 015°33'4 8.5
2020-Jan-11 02:30N 28°33' W 015°37'8 7.5
2020-Jan-11 01:30N 28°30' W 015°45'12 8.2
2020-Jan-11 00:00N 28°22' W 015°55'4 8.7
2020-Jan-10 23:30N 28°23' W 016°00'14 2.3
2020-Jan-10 17:30N 28°28' W 016°14'0 0.0
2020-Jan-10 17:00N 28°28' W 016°14'0 0.0
2020-Jan-10 15:30N 28°28' W 016°14'0 0.0
2020-Jan-10 12:29N 28°28' W 016°14'0 0.0
2020-Jan-10 10:29N 28°28' W 016°14'0 0.0
2020-Jan-10 08:29N 28°28' W 016°14'0 0.0
2020-Jan-10 07:59N 28°28' W 016°14'0 0.0
2020-Jan-10 07:27N 28°28' W 016°14'0 1.0
2020-Jan-10 07:00N 28°29' W 016°14'3 5.8
2020-Jan-10 06:30N 28°28' W 016°11'5410.8
2020-Jan-10 01:30N 28°41' W 015°11'510.4
2020-Jan-10 01:00N 28°42' W 015°05'2811.2
2020-Jan-09 22:30N 28°45' W 014°34'3811.0
2020-Jan-09 19:00N 28°48' W 013°50'30 1.9
2020-Jan-09 03:30N 28°28' W 013°25'7 6.1
2020-Jan-09 02:26N 28°29' W 013°18'24 4.4
2020-Jan-08 21:00N 28°52' W 013°17'3 6.0
2020-Jan-08 20:30N 28°53' W 013°20'6 6.2
2020-Jan-08 19:30N 28°55' W 013°27'3 6.2
2020-Jan-08 18:58N 28°56' W 013°30'2 1.2
2020-Jan-08 17:06N 28°58' W 013°32'0 0.0
2020-Jan-08 15:29N 28°58' W 013°32'0 0.0
2020-Jan-08 14:53N 28°58' W 013°32'0 0.0
2020-Jan-08 13:51N 28°58' W 013°32'  

Dump ship's entire track history